Time;durP1;ratioP1;P1;durP2;ratioP2;P2;SDS_P1;SDS_P2;PMS_P1;PMS_P2;Temp;Humidity;BMP_temperature;BMP_pressure;BME280_temperature;BME280_humidity;BME280_pressure;Samples;Min_cycle;Max_cycle;Signal;HPM_P1;HPM_P2
2021/11/16 00:00:35;;;;;;;77.03;45.80;;;;;;;6.31;78.23;100114.28;2129349;84;20952;-80
2021/11/16 00:03:37;;;;;;;80.20;46.97;;;;;;;6.32;78.23;100112.17;2102951;84;21019;-80
2021/11/16 00:06:38;;;;;;;77.03;45.63;;;;;;;6.34;78.26;100107.95;2128574;83;21875;-80
2021/11/16 00:09:38;;;;;;;75.93;45.50;;;;;;;6.37;78.21;100114.58;2128536;83;21027;-79
2021/11/16 00:12:39;;;;;;;76.03;47.37;;;;;;;6.38;78.22;100107.69;2128728;84;21020;-81
2021/11/16 00:15:39;;;;;;;69.10;43.07;;;;;;;6.39;78.19;100107.77;2129354;83;20949;-81
2021/11/16 00:18:40;;;;;;;76.67;46.93;;;;;;;6.40;78.28;100103.47;2129343;83;20909;-80
2021/11/16 00:21:41;;;;;;;74.60;45.90;;;;;;;6.41;78.15;100105.65;2129034;83;21348;-80
2021/11/16 00:24:56;;;;;;;76.97;47.50;;;;;;;6.45;78.12;100108.88;2129170;84;21392;-81
2021/11/16 00:27:44;;;;;;;86.03;47.07;;;;;;;6.39;77.98;100103.88;2126421;84;21040;-80
2021/11/16 00:30:45;;;;;;;93.03;49.63;;;;;;;6.39;78.06;100107.77;2128937;83;20981;-80
2021/11/16 00:33:45;;;;;;;81.27;47.73;;;;;;;6.42;78.10;100107.43;2129153;84;21012;-80
2021/11/16 00:36:46;;;;;;;77.63;46.47;;;;;;;6.42;77.98;100099.65;2129159;83;21404;-80
2021/11/16 00:39:46;;;;;;;77.30;47.07;;;;;;;6.40;77.92;100095.69;2137131;83;21391;-81
2021/11/16 00:42:46;;;;;;;79.93;48.33;;;;;;;6.37;78.03;100099.02;2137072;83;20996;-80
2021/11/16 00:48:49;;;;;;;77.77;46.50;;;;;;;6.34;77.97;100091.09;2116801;83;21008;-80
2021/11/16 00:51:50;;;;;;;83.67;47.03;;;;;;;6.33;77.90;100093.20;2137139;83;20984;-79
2021/11/16 00:54:50;;;;;;;84.93;49.50;;;;;;;6.22;77.90;100094.39;2136985;83;20980;-79
2021/11/16 00:57:51;;;;;;;83.17;47.43;;;;;;;6.18;78.01;100095.05;2136976;83;20992;-81
2021/11/16 01:00:51;;;;;;;88.60;49.03;;;;;;;6.16;78.22;100095.38;2136994;83;20980;-80
2021/11/16 01:03:52;;;;;;;89.97;50.87;;;;;;;6.08;78.16;100095.41;2137059;83;20992;-80
2021/11/16 01:06:52;;;;;;;89.93;50.70;;;;;;;6.03;78.39;100094.27;2136965;83;21355;-79
2021/11/16 01:09:53;;;;;;;78.73;47.07;;;;;;;6.01;78.40;100100.67;2136957;83;21349;-81
2021/11/16 01:12:53;;;;;;;82.40;47.90;;;;;;;5.99;78.55;100094.92;2137101;83;21008;-81
2021/11/16 01:15:54;;;;;;;84.23;49.13;;;;;;;5.94;78.52;100096.40;2137313;83;20945;-80
2021/11/16 01:18:56;;;;;;;86.23;50.70;;;;;;;5.91;78.61;100088.06;2137038;83;20957;-81
2021/11/16 01:21:56;;;;;;;93.53;51.20;;;;;;;5.87;78.76;100090.39;2137052;83;21000;-80
2021/11/16 01:24:57;;;;;;;95.03;53.17;;;;;;;5.83;78.75;100100.12;2136978;83;20981;-80
2021/11/16 01:28:01;;;;;;;90.07;51.00;;;;;;;5.82;78.96;100097.05;2136837;83;21436;-79
2021/11/16 01:31:03;;;;;;;97.93;53.47;;;;;;;5.80;78.93;100099.97;2136684;83;21181;-80
2021/11/16 01:34:04;;;;;;;88.60;52.80;;;;;;;5.77;79.03;100100.70;2136723;83;21388;-81
2021/11/16 01:37:04;;;;;;;86.60;50.57;;;;;;;5.75;79.15;100098.44;2136509;83;20976;-81
2021/11/16 01:40:05;;;;;;;86.87;49.87;;;;;;;5.76;79.16;100094.63;2129206;83;21032;-80
2021/11/16 01:43:08;;;;;;;86.80;50.37;;;;;;;5.76;79.18;100091.15;2129177;84;21012;-80
2021/11/16 01:46:09;;;;;;;98.73;51.97;;;;;;;5.74;79.20;100087.59;2129207;83;21415;-80
2021/11/16 01:49:12;;;;;;;88.95;50.52;;;;;;;5.73;79.28;100083.22;2129293;83;20984;-80
2021/11/16 01:52:13;;;;;;;100.67;52.73;;;;;;;5.71;79.51;100073.19;2128971;83;20988;-80
2021/11/16 01:55:13;;;;;;;98.10;51.77;;;;;;;5.65;79.33;100075.06;2129163;84;20961;-81
2021/11/16 01:58:14;;;;;;;91.27;49.07;;;;;;;5.64;79.51;100073.69;2129089;83;21321;-80
2021/11/16 02:01:14;;;;;;;91.23;49.60;;;;;;;5.62;79.48;100075.31;2129167;84;21329;-81
2021/11/16 02:04:15;;;;;;;89.70;50.63;;;;;;;5.63;79.48;100075.39;2129212;84;20937;-80
2021/11/16 02:07:16;;;;;;;86.87;48.77;;;;;;;5.66;79.51;100079.84;2129024;83;21008;-80
2021/11/16 02:10:16;;;;;;;102.27;47.30;;;;;;;5.69;79.48;100076.99;2129272;83;20964;-82
2021/11/16 02:13:19;;;;;;;90.03;46.17;;;;;;;5.70;79.55;100078.77;2128901;83;21007;-80
2021/11/16 02:16:19;;;;;;;91.70;47.93;;;;;;;5.70;79.72;100081.36;2128946;83;20980;-81
2021/11/16 02:19:20;;;;;;;90.90;49.47;;;;;;;5.68;79.67;100081.70;2129355;84;20981;-80
2021/11/16 02:22:20;;;;;;;95.67;50.13;;;;;;;5.72;79.75;100084.03;2128460;83;20984;-80
2021/11/16 02:25:21;;;;;;;89.67;49.07;;;;;;;5.75;79.83;100066.94;2128582;83;21332;-80
2021/11/16 02:28:21;;;;;;;92.53;50.07;;;;;;;5.80;79.80;100070.17;2129242;83;21352;-80
2021/11/16 02:31:22;;;;;;;100.13;50.37;;;;;;;5.80;79.84;100071.06;2129011;84;21004;-80
2021/11/16 02:34:22;;;;;;;95.47;49.83;;;;;;;5.83;79.97;100065.14;2128667;83;21020;-80
2021/11/16 02:37:23;;;;;;;94.80;49.37;;;;;;;5.83;79.85;100059.55;2129410;83;20996;-81
2021/11/16 02:40:24;;;;;;;98.60;50.53;;;;;;;5.82;79.93;100050.00;2136786;83;20984;-80
2021/11/16 02:43:24;;;;;;;94.13;50.57;;;;;;;5.84;80.00;100053.55;2136690;83;20972;-79
2021/11/16 02:46:25;;;;;;;102.13;48.33;;;;;;;5.83;79.92;100056.07;2136867;83;20984;-79
2021/11/16 02:49:25;;;;;;;86.03;46.10;;;;;;;5.82;80.00;100054.30;2137050;83;21351;-79
2021/11/16 02:52:26;;;;;;;98.07;49.43;;;;;;;7.15;83.42;100047.28;2136938;83;21028;-79
2021/11/16 02:55:26;;;;;;;93.67;48.57;;;;;;;7.09;78.63;100045.30;2137032;83;21005;-80
2021/11/16 02:58:27;;;;;;;93.77;49.37;;;;;;;6.76;78.14;100049.83;2136934;83;21016;-81
2021/11/16 03:01:27;;;;;;;94.23;47.90;;;;;;;6.55;78.33;100044.53;2137085;83;20972;-80
2021/11/16 03:04:28;;;;;;;93.17;51.03;;;;;;;6.39;78.42;100045.92;2136818;83;20972;-80
2021/11/16 03:07:29;;;;;;;97.70;49.27;;;;;;;6.26;78.40;100039.27;2136540;83;20952;-80
2021/11/16 03:10:31;;;;;;;94.57;50.00;;;;;;;6.13;78.71;100035.61;2136921;83;21032;-81
2021/11/16 03:13:36;;;;;;;92.27;49.10;;;;;;;6.02;78.88;100041.94;2136496;83;21080;-80
2021/11/16 03:16:34;;;;;;;95.17;50.57;;;;;;;5.94;79.16;100041.56;2136667;82;20976;-79
2021/11/16 03:19:37;;;;;;;101.50;50.17;;;;;;;5.91;79.43;100035.34;2137226;83;21004;-80
2021/11/16 03:22:38;;;;;;;94.83;49.90;;;;;;;5.87;79.49;100033.38;2137147;83;20952;-80
2021/11/16 03:25:42;;;;;;;93.37;49.50;;;;;;;5.82;79.62;100040.04;2137192;83;21036;-80
2021/11/16 03:28:44;;;;;;;95.13;49.40;;;;;;;5.79;79.76;100038.59;2136703;83;20980;-80
2021/11/16 03:31:50;;;;;;;91.73;48.47;;;;;;;5.75;79.79;100040.14;2136110;83;21364;-80
2021/11/16 03:34:45;;;;;;;97.17;48.30;;;;;;;5.75;79.99;100040.14;2136063;83;20976;-81
2021/11/16 03:37:49;;;;;;;95.00;47.83;;;;;;;5.74;80.11;100037.07;2136776;83;21430;-80
2021/11/16 03:40:48;;;;;;;91.80;47.97;;;;;;;5.76;80.12;100038.03;2136629;83;21363;-80
2021/11/16 03:43:51;;;;;;;96.37;48.20;;;;;;;5.75;80.11;100038.84;2136657;83;21405;-79
2021/11/16 03:46:51;;;;;;;98.70;49.63;;;;;;;5.73;80.15;100036.59;2136698;83;21019;-80
2021/11/16 03:49:52;;;;;;;105.13;51.10;;;;;;;5.69;80.17;100034.25;2137284;83;20960;-80
2021/11/16 03:52:54;;;;;;;101.23;51.23;;;;;;;5.68;80.32;100028.59;2137113;83;21012;-81
2021/11/16 03:55:54;;;;;;;101.87;50.30;;;;;;;5.69;80.45;100031.66;2137390;83;20960;-80
2021/11/16 03:58:55;;;;;;;100.23;48.90;;;;;;;5.70;80.52;100026.96;2137379;83;20937;-80
2021/11/16 04:01:58;;;;;;;108.20;51.13;;;;;;;5.71;80.45;100024.86;2137513;83;20937;-80
2021/11/16 04:04:59;;;;;;;107.73;53.27;;;;;;;5.73;80.54;100023.63;2137390;83;21009;-80
2021/11/16 04:08:01;;;;;;;107.53;51.50;;;;;;;5.69;80.59;100022.59;2116951;83;21044;-81
2021/11/16 04:11:02;;;;;;;112.47;53.37;;;;;;;5.69;80.66;100026.89;2137096;83;20969;-79
2021/11/16 04:14:02;;;;;;;104.93;52.17;;;;;;;5.69;80.74;100027.77;2137337;83;21371;-80
2021/11/16 04:17:03;;;;;;;106.10;51.70;;;;;;;5.69;80.74;100021.70;2137443;83;21376;-80
2021/11/16 04:20:03;;;;;;;113.50;54.27;;;;;;;5.68;80.88;100015.63;2137898;83;21282;-80
2021/11/16 04:23:04;;;;;;;108.90;52.97;;;;;;;5.67;80.87;100014.27;2137294;83;20988;-80
2021/11/16 04:26:07;;;;;;;107.77;51.43;;;;;;;5.66;80.98;100018.55;2137322;83;20972;-78
2021/11/16 04:29:07;;;;;;;116.47;53.60;;;;;;;5.68;80.90;100016.04;2137107;83;21495;-80
2021/11/16 04:32:08;;;;;;;110.30;50.87;;;;;;;5.67;81.00;100016.85;2137102;83;21036;-79
2021/11/16 04:35:09;;;;;;;107.03;52.57;;;;;;;5.69;81.05;100010.94;2137125;83;20957;-80
2021/11/16 04:38:10;;;;;;;117.27;54.67;;;;;;;5.70;81.02;100012.71;2136629;83;21488;-80
2021/11/16 04:41:11;;;;;;;109.03;50.87;;;;;;;5.72;81.08;100024.04;2136196;83;20952;-79
2021/11/16 04:44:11;;;;;;;119.13;54.70;;;;;;;5.72;81.07;100016.27;2136673;83;20972;-80
2021/11/16 04:47:16;;;;;;;130.40;55.40;;;;;;;5.70;81.06;100019.19;2137566;83;21372;-80
2021/11/16 04:50:29;;;;;;;131.13;55.37;;;;;;;5.71;81.16;100008.02;2135878;83;21056;-80
2021/11/16 04:53:37;;;;;;;126.93;55.33;;;;;;;5.71;81.09;100015.78;2134031;83;21035;-81
2021/11/16 05:02:40;;;;;;;121.80;54.17;;;;;;;5.78;81.19;100023.86;2116934;83;21040;-82
2021/11/16 05:05:38;;;;;;;123.50;55.50;;;;;;;5.79;80.96;100029.53;2136469;83;21387;-81
2021/11/16 05:08:39;;;;;;;133.87;57.87;;;;;;;5.78;80.97;100020.86;2136509;83;21020;-81
2021/11/16 05:11:40;;;;;;;124.93;56.77;;;;;;;5.76;80.97;100013.42;2137532;83;21359;-81
2021/11/16 05:14:43;;;;;;;124.67;55.67;;;;;;;5.75;81.05;100015.12;2137484;83;20964;-81
2021/11/16 05:17:46;;;;;;;130.13;57.00;;;;;;;5.77;80.96;100021.67;2137186;83;21327;-81
2021/11/16 05:20:46;;;;;;;121.40;55.67;;;;;;;5.74;81.03;100023.70;2136459;83;20981;-80
2021/11/16 05:23:47;;;;;;;136.97;58.43;;;;;;;5.76;81.04;100025.97;2136728;83;20962;-80
2021/11/16 05:26:47;;;;;;;127.23;54.50;;;;;;;5.75;81.03;100028.08;2136316;83;20984;-80
2021/11/16 05:29:48;;;;;;;125.93;59.27;;;;;;;5.74;81.17;100031.48;2136028;83;21011;-78
2021/11/16 05:32:48;;;;;;;177.87;59.97;;;;;;;5.75;81.14;100026.78;2135986;83;21100;-80
2021/11/16 05:35:49;;;;;;;125.83;56.47;;;;;;;5.71;81.28;100028.73;2135666;83;21020;-80
2021/11/16 05:38:49;;;;;;;118.87;53.13;;;;;;;5.66;81.21;100030.21;2135310;83;21155;-80
2021/11/16 05:41:50;;;;;;;176.57;63.50;;;;;;;5.65;81.26;100037.50;2135725;83;21015;-79
2021/11/16 05:44:51;;;;;;;131.87;55.87;;;;;;;5.66;81.34;100039.69;2135255;83;21332;-79
2021/11/16 05:47:51;;;;;;;124.93;56.43;;;;;;;5.66;81.38;100036.69;2135114;83;21406;-80
2021/11/16 05:50:52;;;;;;;118.07;55.27;;;;;;;5.65;81.26;100041.39;2135187;83;21012;-79
2021/11/16 05:53:56;;;;;;;119.30;54.60;;;;;;;5.64;81.35;100035.72;2135314;83;21000;-80
2021/11/16 05:56:54;;;;;;;126.60;55.30;;;;;;;5.67;81.32;100041.47;2135474;83;20979;-81
2021/11/16 05:59:55;;;;;;;118.37;54.20;;;;;;;5.68;81.32;100041.95;2136669;83;21004;-81
2021/11/16 06:02:56;;;;;;;176.93;58.53;;;;;;;5.71;81.45;100041.70;2135643;83;20928;-79
2021/11/16 06:05:56;;;;;;;116.93;53.53;;;;;;;5.78;81.46;100045.88;2136561;83;20976;-81
2021/11/16 06:08:56;;;;;;;126.00;56.17;;;;;;;5.83;81.32;100054.78;2137315;83;20992;-81
2021/11/16 06:11:57;;;;;;;118.67;55.77;;;;;;;5.82;81.25;100053.00;2136503;83;21460;-81
2021/11/16 06:14:58;;;;;;;124.70;51.63;;;;;;;5.87;81.23;100053.70;2136262;83;21374;-80
2021/11/16 06:17:58;;;;;;;120.50;52.03;;;;;;;5.89;81.17;100057.67;2136208;83;21032;-81
2021/11/16 06:20:59;;;;;;;182.13;55.10;;;;;;;5.91;81.00;100062.15;2136144;83;21031;-81
2021/11/16 06:23:59;;;;;;;115.63;52.60;;;;;;;5.96;81.06;100061.08;2136549;83;21328;-81
2021/11/16 06:27:00;;;;;;;123.30;53.93;;;;;;;5.98;80.91;100060.34;2136305;83;21368;-81
2021/11/16 06:30:00;;;;;;;124.67;53.97;;;;;;;5.98;80.84;100064.23;2136216;83;21032;-81
2021/11/16 06:33:02;;;;;;;126.80;55.17;;;;;;;5.98;80.70;100070.70;2136552;83;21019;-81
2021/11/16 06:36:03;;;;;;;126.20;55.83;;;;;;;5.96;80.76;100068.86;2135618;83;21016;-81
2021/11/16 06:39:04;;;;;;;128.37;55.03;;;;;;;5.93;80.80;100075.19;2135980;83;21122;-80
2021/11/16 06:42:04;;;;;;;127.30;54.47;;;;;;;5.85;81.00;100070.88;2136118;83;21000;-82
2021/11/16 06:45:05;;;;;;;120.23;53.13;;;;;;;5.84;81.21;100077.28;2136378;83;21347;-80
2021/11/16 06:48:05;;;;;;;124.07;55.33;;;;;;;5.85;81.34;100080.36;2135900;83;21399;-80
2021/11/16 06:51:06;;;;;;;127.23;54.70;;;;;;;5.83;81.39;100085.46;2136643;83;20984;-80
2021/11/16 06:54:06;;;;;;;144.07;53.33;;;;;;;5.88;81.43;100089.17;2136234;83;21047;-81
2021/11/16 06:57:07;;;;;;;128.23;53.13;;;;;;;5.90;81.32;100087.98;2136457;83;21008;-80
2021/11/16 07:00:07;;;;;;;122.83;52.73;;;;;;;5.95;81.56;100080.03;2136489;83;20952;-80
2021/11/16 07:03:08;;;;;;;133.50;52.13;;;;;;;5.96;81.31;100078.81;2136580;83;20957;-79
2021/11/16 07:06:09;;;;;;;124.37;53.40;;;;;;;5.94;81.31;100080.44;2137124;83;20937;-79
2021/11/16 07:09:11;;;;;;;134.47;54.20;;;;;;;5.96;81.28;100076.62;2135879;83;21090;-79
2021/11/16 07:12:12;;;;;;;142.97;58.23;;;;;;;6.00;81.38;100074.27;2136339;83;21435;-80
2021/11/16 07:15:13;;;;;;;177.27;80.83;;;;;;;6.03;81.42;100071.83;2137017;83;20976;-79
2021/11/16 07:18:13;;;;;;;128.80;56.10;;;;;;;6.08;81.49;100077.27;2136738;83;20968;-80
2021/11/16 07:21:14;;;;;;;128.50;53.83;;;;;;;6.12;81.47;100080.90;2136619;83;21040;-81
2021/11/16 07:24:14;;;;;;;125.53;54.00;;;;;;;6.15;81.49;100086.23;2136424;83;21015;-81
2021/11/16 07:27:15;;;;;;;119.27;51.83;;;;;;;6.20;81.33;100080.86;2136898;83;20987;-79
2021/11/16 07:30:18;;;;;;;129.77;51.83;;;;;;;6.21;81.19;100077.05;2136002;83;21363;-82
2021/11/16 07:33:20;;;;;;;120.47;49.73;;;;;;;6.24;81.24;100075.02;2135340;83;21498;-81
2021/11/16 07:36:20;;;;;;;126.37;51.97;;;;;;;6.27;81.20;100086.42;2136114;83;21031;-80
2021/11/16 07:39:21;;;;;;;119.40;51.27;;;;;;;6.29;80.93;100087.39;2134060;83;21032;-81
2021/11/16 07:42:22;;;;;;;119.40;51.73;;;;;;;6.29;80.96;100082.20;2127919;83;20996;-80
2021/11/16 07:45:23;;;;;;;118.53;50.97;;;;;;;6.33;81.04;100087.13;2127560;83;20937;-81
2021/11/16 07:48:23;;;;;;;118.10;50.67;;;;;;;6.34;80.74;100084.61;2128395;84;21004;-80
2021/11/16 07:51:24;;;;;;;117.33;49.93;;;;;;;6.36;80.88;100085.98;2128485;83;21011;-80
2021/11/16 07:54:25;;;;;;;118.47;49.73;;;;;;;6.38;80.75;100089.13;2128218;84;21020;-82
2021/11/16 07:57:25;;;;;;;148.17;69.87;;;;;;;6.41;80.90;100086.20;2128371;84;21000;-80
2021/11/16 08:00:27;;;;;;;135.10;57.53;;;;;;;6.46;80.95;100088.61;2128251;83;20968;-80
2021/11/16 08:03:28;;;;;;;142.70;51.77;;;;;;;6.50;80.66;100073.67;2128954;83;21303;-80
2021/11/16 08:06:34;;;;;;;117.30;49.93;;;;;;;6.50;80.66;100073.67;2128456;83;20929;-81
2021/11/16 08:12:41;;;;;;;118.13;51.13;;;;;;;6.50;80.60;100080.16;2103451;84;21023;-81
2021/11/16 08:15:42;;;;;;;111.57;48.53;;;;;;;6.54;80.49;100078.19;2128824;84;21040;-81
2021/11/16 08:18:42;;;;;;;114.93;49.23;;;;;;;6.59;80.57;100069.80;2128399;84;21376;-81
2021/11/16 08:21:42;;;;;;;110.77;48.07;;;;;;;6.66;80.61;100069.67;2127926;84;20953;-80
2021/11/16 08:24:43;;;;;;;108.70;49.07;;;;;;;6.72;80.32;100069.96;2129219;84;21052;-82
2021/11/16 08:27:44;;;;;;;105.77;49.50;;;;;;;6.69;80.25;100067.23;2128915;83;20969;-81
2021/11/16 08:30:45;;;;;;;122.40;51.60;;;;;;;6.71;80.22;100069.48;2127946;83;21051;-80
2021/11/16 08:33:45;;;;;;;115.70;52.40;;;;;;;6.73;80.12;100068.26;2128051;83;20996;-81
2021/11/16 08:36:46;;;;;;;126.93;56.57;;;;;;;6.73;80.12;100068.26;2128572;84;20949;-80
2021/11/16 08:39:47;;;;;;;110.47;49.23;;;;;;;6.75;80.30;100067.51;2128407;84;21174;-80
2021/11/16 08:42:50;;;;;;;110.83;48.13;;;;;;;6.80;80.12;100060.83;2128026;83;21016;-80
2021/11/16 08:45:58;;;;;;;101.73;46.30;;;;;;;6.87;79.93;100064.18;2127769;83;21036;-80
2021/11/16 08:48:54;;;;;;;108.67;46.40;;;;;;;6.94;79.81;100070.16;2127514;84;21127;-80
2021/11/16 08:51:57;;;;;;;107.67;47.87;;;;;;;6.94;79.81;100070.16;2129063;83;21098;-79
2021/11/16 08:54:57;;;;;;;106.60;47.60;;;;;;;7.03;79.71;100070.99;2128181;83;21718;-81
2021/11/16 08:57:58;;;;;;;127.37;50.37;;;;;;;7.13;79.40;100060.61;2127994;83;21457;-81
2021/11/16 09:01:02;;;;;;;96.87;45.90;;;;;;;7.23;79.16;100057.19;2128000;83;21081;-81
2021/11/16 09:04:06;;;;;;;106.90;48.47;;;;;;;7.35;78.78;100059.02;2127615;84;20964;-80
2021/11/16 09:07:07;;;;;;;113.03;48.00;;;;;;;7.40;78.86;100064.42;2127123;83;20976;-80
2021/11/16 09:10:12;;;;;;;111.60;47.07;;;;;;;7.45;78.65;100062.91;2128080;84;21075;-80
2021/11/16 09:13:11;;;;;;;116.87;48.40;;;;;;;7.52;78.48;100053.67;2128139;84;20979;-82
2021/11/16 09:16:13;;;;;;;127.40;46.20;;;;;;;7.52;78.03;100051.96;2127228;83;21028;-80
2021/11/16 09:19:14;;;;;;;107.03;47.37;;;;;;;7.55;77.96;100046.90;2128269;83;21020;-81
2021/11/16 09:22:15;;;;;;;111.70;47.53;;;;;;;7.58;77.89;100050.92;2128243;83;20972;-80
2021/11/16 09:25:16;;;;;;;98.30;47.07;;;;;;;7.57;77.67;100047.85;2127927;84;20969;-80
2021/11/16 09:28:21;;;;;;;102.00;46.33;;;;;;;7.58;77.84;100047.03;2128040;83;20968;-80
2021/11/16 09:31:20;;;;;;;174.00;93.63;;;;;;;7.60;77.74;100044.50;2127550;83;21016;-82
2021/11/16 09:34:21;;;;;;;139.07;50.07;;;;;;;7.72;77.66;100038.93;2127897;84;20992;-80
2021/11/16 09:37:22;;;;;;;102.70;46.33;;;;;;;7.84;77.48;100036.87;2128119;83;21052;-80
2021/11/16 09:40:24;;;;;;;109.73;47.90;;;;;;;7.91;77.42;100031.10;2131415;83;21127;-79
2021/11/16 09:43:25;;;;;;;180.50;49.03;;;;;;;7.98;76.66;100033.13;2136044;83;21043;-79
2021/11/16 09:46:26;;;;;;;105.50;46.87;;;;;;;7.98;76.36;100037.03;2136167;83;20974;-81
2021/11/16 09:49:27;;;;;;;97.27;45.30;;;;;;;7.98;76.72;100035.73;2136816;83;21367;-79
2021/11/16 09:52:31;;;;;;;96.03;44.03;;;;;;;8.03;76.58;100031.60;2136375;83;20991;-80
2021/11/16 09:55:37;;;;;;;98.72;45.65;;;;;;;8.12;76.42;100028.08;2136558;83;21059;-81
2021/11/16 09:58:38;;;;;;;87.80;44.77;;;;;;;8.22;75.94;100019.81;2136958;83;21044;-81
2021/11/16 10:01:39;;;;;;;91.47;42.00;;;;;;;8.26;75.76;100016.50;2136609;83;21019;-81
2021/11/16 10:04:46;;;;;;;87.30;43.07;;;;;;;8.27;75.30;100012.19;2135891;83;21096;-81
2021/11/16 10:07:42;;;;;;;91.07;43.40;;;;;;;8.20;74.94;100011.47;2135155;82;20996;-80
2021/11/16 10:10:44;;;;;;;95.60;42.80;;;;;;;8.20;75.42;100014.96;2135410;83;21018;-79
2021/11/16 10:13:45;;;;;;;89.13;43.20;;;;;;;8.34;74.79;100010.34;2135318;83;21111;-80
2021/11/16 10:16:47;;;;;;;100.10;47.40;;;;;;;8.40;75.08;100018.80;2135009;83;21020;-80
2021/11/16 10:19:47;;;;;;;106.87;47.40;;;;;;;8.43;74.85;100017.61;2135679;83;21363;-76
2021/11/16 10:22:49;;;;;;;110.97;45.17;;;;;;;8.38;74.96;100013.53;2134924;83;20971;-79
2021/11/16 10:25:50;;;;;;;154.90;77.20;;;;;;;8.24;74.88;100012.95;2135520;83;20976;-79
2021/11/16 10:28:51;;;;;;;101.60;47.70;;;;;;;8.18;75.04;100011.83;2135422;83;20967;-79
2021/11/16 10:31:52;;;;;;;99.13;44.87;;;;;;;8.19;75.14;100009.28;2135474;83;20980;-80
2021/11/16 10:34:53;;;;;;;98.87;46.00;;;;;;;8.36;75.07;100002.59;2135346;83;21027;-80
2021/11/16 10:37:54;;;;;;;99.93;46.57;;;;;;;8.46;74.40;100003.01;2135775;83;20976;-80
2021/11/16 10:40:55;;;;;;;96.80;45.33;;;;;;;8.50;74.08;99989.70;2135820;83;21007;-79
2021/11/16 10:43:56;;;;;;;93.03;45.10;;;;;;;8.46;74.11;99990.00;2135575;83;21019;-80
2021/11/16 10:46:57;;;;;;;92.27;44.53;;;;;;;8.47;74.04;99988.28;2135173;83;21052;-79
2021/11/16 10:50:00;;;;;;;81.80;41.17;;;;;;;8.46;73.85;99991.71;2135485;83;20984;-79
2021/11/16 10:53:01;;;;;;;92.17;45.27;;;;;;;8.51;73.69;99986.27;2135079;83;21059;-80
2021/11/16 10:56:02;;;;;;;85.47;43.33;;;;;;;8.49;73.80;99986.20;2134763;83;21398;-79
2021/11/16 10:59:03;;;;;;;95.33;44.10;;;;;;;8.52;73.62;99969.83;2135060;83;20962;-80
2021/11/16 11:02:05;;;;;;;76.57;38.53;;;;;;;8.57;73.85;99971.77;2134677;83;21011;-80
2021/11/16 11:05:06;;;;;;;88.53;42.33;;;;;;;8.58;72.51;99967.45;2134946;83;20968;-79
2021/11/16 11:08:07;;;;;;;89.47;43.63;;;;;;;8.51;73.59;99968.94;2134849;83;20984;-80
2021/11/16 11:11:09;;;;;;;83.90;41.43;;;;;;;8.49;73.52;99965.80;2134741;83;21023;-79
2021/11/16 11:14:10;;;;;;;83.10;41.97;;;;;;;8.48;73.41;99964.92;2135187;83;21048;-80
2021/11/16 11:17:16;;;;;;;83.17;44.17;;;;;;;8.49;73.27;99964.09;2135182;83;20975;-80
2021/11/16 11:20:20;;;;;;;95.70;44.90;;;;;;;8.47;73.47;99956.64;2135305;83;21008;-80
2021/11/16 11:23:22;;;;;;;87.93;40.57;;;;;;;8.50;73.55;99949.36;2136245;83;21108;-82
2021/11/16 11:26:34;;;;;;;80.97;41.57;;;;;;;8.61;73.22;99946.33;2136339;83;21031;-81
2021/11/16 11:29:36;;;;;;;1066.47;122.90;;;;;;;8.69;73.22;99941.44;2135680;82;21418;-80
2021/11/16 11:32:37;;;;;;;99.47;43.90;;;;;;;8.80;72.86;99934.02;2135327;82;20991;-81
2021/11/16 11:35:38;;;;;;;93.07;42.50;;;;;;;8.85;72.86;99935.95;2135384;83;20948;-83
2021/11/16 11:38:39;;;;;;;100.63;41.73;;;;;;;8.81;72.67;99934.08;2135809;83;20941;-82
2021/11/16 11:41:41;;;;;;;82.47;40.77;;;;;;;8.81;72.60;99927.56;2135493;83;21035;-80
2021/11/16 11:44:45;;;;;;;94.77;42.10;;;;;;;8.81;72.44;99925.37;2135408;83;20972;-81
2021/11/16 11:47:44;;;;;;;82.47;40.63;;;;;;;8.80;72.04;99921.00;2136219;83;21016;-81
2021/11/16 11:50:45;;;;;;;79.20;41.53;;;;;;;8.73;72.10;99928.12;2136125;83;20960;-81
2021/11/16 11:56:50;;;;;;;73.63;40.10;;;;;;;8.50;72.47;99920.33;2116223;83;21040;-80
2021/11/16 11:59:51;;;;;;;78.97;41.70;;;;;;;8.55;72.62;99911.39;2135953;83;20977;-80
2021/11/16 12:02:52;;;;;;;79.47;40.87;;;;;;;8.60;72.38;99902.91;2135951;83;21084;-81
2021/11/16 12:05:53;;;;;;;83.03;44.77;;;;;;;8.58;71.98;99907.59;2135898;83;20956;-79
2021/11/16 12:08:55;;;;;;;77.90;39.70;;;;;;;8.56;72.06;99901.45;2135563;83;21025;-81
2021/11/16 12:11:57;;;;;;;71.67;38.93;;;;;;;8.57;71.50;99901.92;2135050;83;21047;-82
2021/11/16 12:15:01;;;;;;;67.03;36.70;;;;;;;8.50;71.71;99911.63;2135092;83;20992;-82
2021/11/16 12:18:02;;;;;;;78.67;38.97;;;;;;;8.45;71.60;99906.67;2136140;83;21023;-83
2021/11/16 12:21:03;;;;;;;89.77;39.27;;;;;;;8.43;72.00;99909.22;2136135;83;21414;-81
2021/11/16 12:24:04;;;;;;;93.37;39.93;;;;;;;8.50;72.13;99897.32;2135782;83;20999;-78
2021/11/16 12:27:05;;;;;;;73.63;38.37;;;;;;;8.53;72.23;99900.03;2135423;83;20976;-82
2021/11/16 12:30:07;;;;;;;84.67;38.90;;;;;;;8.51;71.96;99899.98;2135309;83;20959;-82
2021/11/16 12:33:08;;;;;;;64.63;36.60;;;;;;;8.52;72.26;99893.06;2135479;83;21023;-82
2021/11/16 12:36:09;;;;;;;69.37;37.17;;;;;;;8.47;71.67;99886.39;2135871;83;21000;-81
2021/11/16 12:39:10;;;;;;;70.13;36.07;;;;;;;8.43;71.49;99884.91;2135603;83;21694;-82
2021/11/16 12:42:12;;;;;;;70.07;36.50;;;;;;;8.29;71.51;99885.67;2110659;83;21046;-80
2021/11/16 12:45:15;;;;;;;75.50;37.40;;;;;;;8.20;71.83;99878.41;2106556;85;21019;-82
2021/11/16 12:48:16;;;;;;;113.40;41.33;;;;;;;8.11;72.19;99881.97;2105869;85;21008;-80
2021/11/16 12:51:17;;;;;;;84.70;42.40;;;;;;;8.13;72.64;99876.83;2106057;84;21390;-82
2021/11/16 12:54:18;;;;;;;77.80;41.63;;;;;;;8.19;72.34;99869.25;2106629;84;21023;-81
2021/11/16 12:57:19;;;;;;;104.77;48.50;;;;;;;8.10;72.72;99868.48;2106329;84;21090;-81
2021/11/16 13:00:20;;;;;;;78.10;40.37;;;;;;;8.11;72.65;99870.68;2106333;84;21348;-80
2021/11/16 13:03:21;;;;;;;76.67;39.47;;;;;;;8.11;72.81;99865.06;2106330;84;20960;-83
2021/11/16 13:06:23;;;;;;;80.00;38.77;;;;;;;8.13;72.85;99863.41;2104997;84;21314;-81
2021/11/16 13:09:24;;;;;;;76.97;40.57;;;;;;;8.08;72.64;99861.45;2105462;84;20971;-81
2021/11/16 13:12:26;;;;;;;85.87;40.37;;;;;;;7.98;72.77;99856.33;2105561;84;21043;-81
2021/11/16 13:15:32;;;;;;;75.67;40.53;;;;;;;7.90;73.02;99850.84;2106035;85;20962;-80
2021/11/16 13:18:32;;;;;;;76.17;41.57;;;;;;;7.81;73.06;99847.87;2105234;85;20997;-81
2021/11/16 13:21:33;;;;;;;101.27;42.10;;;;;;;7.62;73.19;99847.95;2104920;84;21501;-81
2021/11/16 13:24:35;;;;;;;95.60;39.63;;;;;;;7.59;73.83;99842.23;2105857;84;21327;-81
2021/11/16 13:27:36;;;;;;;96.20;42.93;;;;;;;7.70;74.07;99840.46;2106238;85;20936;-81
2021/11/16 13:30:38;;;;;;;73.10;38.73;;;;;;;7.77;73.98;99833.37;2106051;85;21019;-80
2021/11/16 13:33:39;;;;;;;71.83;38.27;;;;;;;7.81;73.23;99829.69;2105708;84;21058;-80
2021/11/16 13:36:41;;;;;;;71.10;39.43;;;;;;;7.75;73.46;99834.62;2104591;84;20959;-81
2021/11/16 13:39:42;;;;;;;1138.23;143.97;;;;;;;7.77;73.58;99829.48;2105117;84;20999;-77
2021/11/16 13:42:45;;;;;;;93.17;41.53;;;;;;;7.85;73.66;99835.89;2104479;83;21113;-81
2021/11/16 13:45:47;;;;;;;71.57;39.00;;;;;;;7.87;73.35;99829.92;2104807;84;21358;-79
2021/11/16 13:48:49;;;;;;;76.77;36.47;;;;;;;7.86;73.22;99825.55;2104898;85;21358;-81
2021/11/16 13:51:50;;;;;;;72.67;38.03;;;;;;;7.75;73.17;99824.63;2104621;85;20952;-80
2021/11/16 13:54:51;;;;;;;73.43;37.77;;;;;;;7.60;73.12;99815.42;2104914;85;21030;-80
2021/11/16 13:57:53;;;;;;;69.50;37.30;;;;;;;7.47;73.34;99818.36;2105145;84;20986;-81
2021/11/16 14:00:57;;;;;;;74.00;39.10;;;;;;;7.34;73.54;99812.21;2106081;85;20960;-81
2021/11/16 14:03:59;;;;;;;76.80;38.67;;;;;;;7.24;73.98;99817.86;2106032;84;20999;-80